sensor_id;sensor_type;location;lat;lon;timestamp;P1;durP1;ratioP1;P2;durP2;ratioP2
21657;SDS011;10990;48.174;9.782;2023-05-13T00:02:13;9.68;;;5.93;;
21657;SDS011;10990;48.174;9.782;2023-05-13T00:04:39;6.95;;;5.30;;
21657;SDS011;10990;48.174;9.782;2023-05-13T00:07:06;8.27;;;6.40;;
21657;SDS011;10990;48.174;9.782;2023-05-13T00:09:34;7.10;;;5.53;;
21657;SDS011;10990;48.174;9.782;2023-05-13T00:12:01;9.90;;;6.28;;
21657;SDS011;10990;48.174;9.782;2023-05-13T00:14:28;9.47;;;6.17;;
21657;SDS011;10990;48.174;9.782;2023-05-13T00:16:54;7.65;;;5.80;;
21657;SDS011;10990;48.174;9.782;2023-05-13T00:19:22;8.27;;;6.10;;
21657;SDS011;10990;48.174;9.782;2023-05-13T00:21:49;7.07;;;5.65;;
21657;SDS011;10990;48.174;9.782;2023-05-13T00:24:16;8.50;;;6.32;;
21657;SDS011;10990;48.174;9.782;2023-05-13T00:26:44;9.37;;;6.23;;
21657;SDS011;10990;48.174;9.782;2023-05-13T00:29:11;7.13;;;5.88;;
21657;SDS011;10990;48.174;9.782;2023-05-13T00:31:37;8.65;;;6.20;;
21657;SDS011;10990;48.174;9.782;2023-05-13T00:34:04;8.07;;;6.72;;
21657;SDS011;10990;48.174;9.782;2023-05-13T00:36:31;6.45;;;5.75;;
21657;SDS011;10990;48.174;9.782;2023-05-13T00:38:58;7.63;;;6.43;;
21657;SDS011;10990;48.174;9.782;2023-05-13T00:41:25;12.05;;;6.80;;
21657;SDS011;10990;48.174;9.782;2023-05-13T00:43:54;7.70;;;5.95;;
21657;SDS011;10990;48.174;9.782;2023-05-13T00:46:21;9.20;;;6.17;;
21657;SDS011;10990;48.174;9.782;2023-05-13T00:48:48;7.57;;;5.85;;
21657;SDS011;10990;48.174;9.782;2023-05-13T00:51:15;8.40;;;6.10;;
21657;SDS011;10990;48.174;9.782;2023-05-13T00:53:42;7.32;;;5.70;;
21657;SDS011;10990;48.174;9.782;2023-05-13T00:56:09;12.60;;;6.10;;
21657;SDS011;10990;48.174;9.782;2023-05-13T00:58:36;9.13;;;6.13;;
21657;SDS011;10990;48.174;9.782;2023-05-13T01:01:07;7.00;;;5.67;;
21657;SDS011;10990;48.174;9.782;2023-05-13T01:03:42;7.28;;;5.85;;
21657;SDS011;10990;48.174;9.782;2023-05-13T01:06:17;7.23;;;5.87;;
21657;SDS011;10990;48.174;9.782;2023-05-13T01:09:07;7.60;;;5.60;;
21657;SDS011;10990;48.174;9.782;2023-05-13T01:11:40;9.03;;;5.93;;
21657;SDS011;10990;48.174;9.782;2023-05-13T01:14:08;7.45;;;6.30;;
21657;SDS011;10990;48.174;9.782;2023-05-13T01:16:41;6.68;;;5.72;;
21657;SDS011;10990;48.174;9.782;2023-05-13T01:19:19;7.85;;;5.47;;
21657;SDS011;10990;48.174;9.782;2023-05-13T01:21:53;8.30;;;5.68;;
21657;SDS011;10990;48.174;9.782;2023-05-13T01:24:21;8.23;;;6.00;;
21657;SDS011;10990;48.174;9.782;2023-05-13T01:26:47;7.90;;;6.68;;
21657;SDS011;10990;48.174;9.782;2023-05-13T01:29:14;9.05;;;5.93;;
21657;SDS011;10990;48.174;9.782;2023-05-13T01:31:42;8.20;;;6.53;;
21657;SDS011;10990;48.174;9.782;2023-05-13T01:34:11;8.35;;;6.05;;
21657;SDS011;10990;48.174;9.782;2023-05-13T01:36:40;8.23;;;6.30;;
21657;SDS011;10990;48.174;9.782;2023-05-13T01:39:08;7.65;;;6.25;;
21657;SDS011;10990;48.174;9.782;2023-05-13T01:41:36;6.80;;;5.97;;
21657;SDS011;10990;48.174;9.782;2023-05-13T01:44:03;7.28;;;6.30;;
21657;SDS011;10990;48.174;9.782;2023-05-13T01:46:30;8.83;;;6.50;;
21657;SDS011;10990;48.174;9.782;2023-05-13T01:48:57;7.77;;;6.40;;
21657;SDS011;10990;48.174;9.782;2023-05-13T01:51:24;9.50;;;6.50;;
21657;SDS011;10990;48.174;9.782;2023-05-13T01:53:51;9.60;;;6.80;;
21657;SDS011;10990;48.174;9.782;2023-05-13T01:56:19;7.47;;;6.67;;
21657;SDS011;10990;48.174;9.782;2023-05-13T01:58:47;10.38;;;7.25;;
21657;SDS011;10990;48.174;9.782;2023-05-13T02:01:13;8.03;;;6.33;;
21657;SDS011;10990;48.174;9.782;2023-05-13T02:03:41;7.40;;;5.73;;
21657;SDS011;10990;48.174;9.782;2023-05-13T02:06:07;8.53;;;5.90;;
21657;SDS011;10990;48.174;9.782;2023-05-13T02:08:34;9.20;;;6.90;;
21657;SDS011;10990;48.174;9.782;2023-05-13T02:11:02;7.70;;;6.43;;
21657;SDS011;10990;48.174;9.782;2023-05-13T02:13:30;8.90;;;6.73;;
21657;SDS011;10990;48.174;9.782;2023-05-13T02:15:56;8.57;;;6.37;;
21657;SDS011;10990;48.174;9.782;2023-05-13T02:18:23;9.45;;;6.25;;
21657;SDS011;10990;48.174;9.782;2023-05-13T02:20:50;9.57;;;6.55;;
21657;SDS011;10990;48.174;9.782;2023-05-13T02:23:16;7.93;;;5.30;;
21657;SDS011;10990;48.174;9.782;2023-05-13T02:25:43;7.85;;;5.28;;
21657;SDS011;10990;48.174;9.782;2023-05-13T02:28:10;6.00;;;5.00;;
21657;SDS011;10990;48.174;9.782;2023-05-13T02:30:38;7.03;;;4.57;;
21657;SDS011;10990;48.174;9.782;2023-05-13T02:33:06;6.03;;;4.10;;
21657;SDS011;10990;48.174;9.782;2023-05-13T02:35:33;4.97;;;4.00;;
21657;SDS011;10990;48.174;9.782;2023-05-13T02:38:00;7.40;;;4.13;;
21657;SDS011;10990;48.174;9.782;2023-05-13T02:40:28;5.65;;;4.05;;
21657;SDS011;10990;48.174;9.782;2023-05-13T02:42:56;5.57;;;3.80;;
21657;SDS011;10990;48.174;9.782;2023-05-13T02:45:34;4.35;;;3.55;;
21657;SDS011;10990;48.174;9.782;2023-05-13T02:48:02;6.07;;;3.87;;
21657;SDS011;10990;48.174;9.782;2023-05-13T02:50:29;6.70;;;4.00;;
21657;SDS011;10990;48.174;9.782;2023-05-13T02:52:56;4.00;;;3.60;;
21657;SDS011;10990;48.174;9.782;2023-05-13T02:55:23;4.23;;;3.10;;
21657;SDS011;10990;48.174;9.782;2023-05-13T02:57:50;5.95;;;3.50;;
21657;SDS011;10990;48.174;9.782;2023-05-13T03:00:17;3.70;;;3.13;;
21657;SDS011;10990;48.174;9.782;2023-05-13T03:02:44;4.77;;;3.80;;
21657;SDS011;10990;48.174;9.782;2023-05-13T03:05:12;5.88;;;3.70;;
21657;SDS011;10990;48.174;9.782;2023-05-13T03:07:39;5.10;;;3.97;;
21657;SDS011;10990;48.174;9.782;2023-05-13T03:10:07;4.77;;;3.60;;
21657;SDS011;10990;48.174;9.782;2023-05-13T03:12:34;5.70;;;4.00;;
21657;SDS011;10990;48.174;9.782;2023-05-13T03:15:01;4.37;;;3.57;;
21657;SDS011;10990;48.174;9.782;2023-05-13T03:17:28;4.47;;;3.70;;
21657;SDS011;10990;48.174;9.782;2023-05-13T03:19:56;6.65;;;4.70;;
21657;SDS011;10990;48.174;9.782;2023-05-13T03:22:24;5.27;;;4.10;;
21657;SDS011;10990;48.174;9.782;2023-05-13T03:24:52;6.47;;;3.90;;
21657;SDS011;10990;48.174;9.782;2023-05-13T03:27:21;5.18;;;4.10;;
21657;SDS011;10990;48.174;9.782;2023-05-13T03:29:49;5.67;;;4.43;;
21657;SDS011;10990;48.174;9.782;2023-05-13T03:32:15;5.33;;;4.10;;
21657;SDS011;10990;48.174;9.782;2023-05-13T03:34:42;5.83;;;4.10;;
21657;SDS011;10990;48.174;9.782;2023-05-13T03:37:09;5.27;;;4.27;;
21657;SDS011;10990;48.174;9.782;2023-05-13T03:39:37;6.27;;;4.50;;
21657;SDS011;10990;48.174;9.782;2023-05-13T03:42:04;6.47;;;4.63;;
21657;SDS011;10990;48.174;9.782;2023-05-13T03:44:31;5.57;;;4.30;;
21657;SDS011;10990;48.174;9.782;2023-05-13T03:46:58;5.37;;;4.20;;
21657;SDS011;10990;48.174;9.782;2023-05-13T03:49:25;4.63;;;3.87;;
21657;SDS011;10990;48.174;9.782;2023-05-13T03:51:51;6.40;;;4.43;;
21657;SDS011;10990;48.174;9.782;2023-05-13T03:54:18;5.03;;;4.10;;
21657;SDS011;10990;48.174;9.782;2023-05-13T03:56:46;5.00;;;3.97;;
21657;SDS011;10990;48.174;9.782;2023-05-13T03:59:13;5.40;;;4.47;;
21657;SDS011;10990;48.174;9.782;2023-05-13T04:01:40;6.17;;;4.53;;
21657;SDS011;10990;48.174;9.782;2023-05-13T04:04:07;6.73;;;4.23;;
21657;SDS011;10990;48.174;9.782;2023-05-13T04:06:34;5.40;;;4.13;;
21657;SDS011;10990;48.174;9.782;2023-05-13T04:09:01;7.07;;;4.47;;
21657;SDS011;10990;48.174;9.782;2023-05-13T04:11:28;6.57;;;4.40;;
21657;SDS011;10990;48.174;9.782;2023-05-13T04:13:57;5.30;;;4.30;;
21657;SDS011;10990;48.174;9.782;2023-05-13T04:16:23;5.37;;;4.07;;
21657;SDS011;10990;48.174;9.782;2023-05-13T04:18:50;5.73;;;4.53;;
21657;SDS011;10990;48.174;9.782;2023-05-13T04:21:17;6.03;;;4.60;;
21657;SDS011;10990;48.174;9.782;2023-05-13T04:23:43;6.07;;;4.63;;
21657;SDS011;10990;48.174;9.782;2023-05-13T04:26:10;6.47;;;4.27;;
21657;SDS011;10990;48.174;9.782;2023-05-13T04:28:37;6.77;;;4.37;;
21657;SDS011;10990;48.174;9.782;2023-05-13T04:31:06;5.27;;;4.17;;
21657;SDS011;10990;48.174;9.782;2023-05-13T04:33:34;7.23;;;4.60;;
21657;SDS011;10990;48.174;9.782;2023-05-13T04:36:01;6.53;;;4.30;;
21657;SDS011;10990;48.174;9.782;2023-05-13T04:38:29;5.10;;;4.10;;
21657;SDS011;10990;48.174;9.782;2023-05-13T04:40:56;6.83;;;4.30;;
21657;SDS011;10990;48.174;9.782;2023-05-13T04:43:32;5.47;;;4.37;;
21657;SDS011;10990;48.174;9.782;2023-05-13T04:46:00;4.23;;;3.63;;
21657;SDS011;10990;48.174;9.782;2023-05-13T04:48:28;6.77;;;4.83;;
21657;SDS011;10990;48.174;9.782;2023-05-13T04:50:56;6.63;;;5.10;;
21657;SDS011;10990;48.174;9.782;2023-05-13T04:53:24;5.93;;;4.50;;
21657;SDS011;10990;48.174;9.782;2023-05-13T04:55:52;5.55;;;4.60;;
21657;SDS011;10990;48.174;9.782;2023-05-13T04:58:25;7.07;;;5.10;;
21657;SDS011;10990;48.174;9.782;2023-05-13T05:00:52;7.07;;;5.03;;
21657;SDS011;10990;48.174;9.782;2023-05-13T05:03:20;7.53;;;5.37;;
21657;SDS011;10990;48.174;9.782;2023-05-13T05:05:48;7.23;;;5.03;;
21657;SDS011;10990;48.174;9.782;2023-05-13T05:08:15;6.53;;;4.33;;
21657;SDS011;10990;48.174;9.782;2023-05-13T05:10:43;6.03;;;4.80;;
21657;SDS011;10990;48.174;9.782;2023-05-13T05:13:13;6.27;;;4.80;;
21657;SDS011;10990;48.174;9.782;2023-05-13T05:15:41;6.97;;;5.00;;
21657;SDS011;10990;48.174;9.782;2023-05-13T05:18:09;8.07;;;5.27;;
21657;SDS011;10990;48.174;9.782;2023-05-13T05:20:37;6.30;;;5.13;;
21657;SDS011;10990;48.174;9.782;2023-05-13T05:23:09;6.13;;;4.90;;
21657;SDS011;10990;48.174;9.782;2023-05-13T05:25:36;7.20;;;5.57;;
21657;SDS011;10990;48.174;9.782;2023-05-13T05:28:03;6.57;;;4.77;;
21657;SDS011;10990;48.174;9.782;2023-05-13T05:30:31;6.47;;;5.00;;
21657;SDS011;10990;48.174;9.782;2023-05-13T05:33:05;8.57;;;5.33;;
21657;SDS011;10990;48.174;9.782;2023-05-13T05:35:35;6.23;;;4.80;;
21657;SDS011;10990;48.174;9.782;2023-05-13T05:38:05;7.10;;;5.27;;
21657;SDS011;10990;48.174;9.782;2023-05-13T05:40:34;6.93;;;5.30;;
21657;SDS011;10990;48.174;9.782;2023-05-13T05:43:04;8.30;;;5.10;;
21657;SDS011;10990;48.174;9.782;2023-05-13T05:45:33;7.23;;;5.37;;
21657;SDS011;10990;48.174;9.782;2023-05-13T05:48:00;7.90;;;5.87;;
21657;SDS011;10990;48.174;9.782;2023-05-13T05:50:28;7.37;;;5.60;;
21657;SDS011;10990;48.174;9.782;2023-05-13T05:52:55;10.73;;;5.72;;
21657;SDS011;10990;48.174;9.782;2023-05-13T05:55:23;8.63;;;5.60;;
21657;SDS011;10990;48.174;9.782;2023-05-13T05:57:53;8.97;;;6.20;;
21657;SDS011;10990;48.174;9.782;2023-05-13T06:00:20;8.23;;;5.90;;
21657;SDS011;10990;48.174;9.782;2023-05-13T06:02:46;10.37;;;5.90;;
21657;SDS011;10990;48.174;9.782;2023-05-13T06:05:14;8.32;;;5.78;;
21657;SDS011;10990;48.174;9.782;2023-05-13T06:07:42;9.07;;;5.80;;
21657;SDS011;10990;48.174;9.782;2023-05-13T06:10:09;10.10;;;6.37;;
21657;SDS011;10990;48.174;9.782;2023-05-13T06:12:36;7.67;;;5.80;;
21657;SDS011;10990;48.174;9.782;2023-05-13T06:15:09;8.13;;;5.80;;
21657;SDS011;10990;48.174;9.782;2023-05-13T06:17:36;10.80;;;6.13;;
21657;SDS011;10990;48.174;9.782;2023-05-13T06:20:05;9.73;;;5.50;;
21657;SDS011;10990;48.174;9.782;2023-05-13T06:22:34;9.88;;;5.90;;
21657;SDS011;10990;48.174;9.782;2023-05-13T06:25:00;9.53;;;5.93;;
21657;SDS011;10990;48.174;9.782;2023-05-13T06:27:27;7.80;;;6.00;;
21657;SDS011;10990;48.174;9.782;2023-05-13T06:29:54;7.47;;;5.60;;
21657;SDS011;10990;48.174;9.782;2023-05-13T06:32:22;9.00;;;5.97;;
21657;SDS011;10990;48.174;9.782;2023-05-13T06:34:49;11.63;;;6.50;;
21657;SDS011;10990;48.174;9.782;2023-05-13T06:37:16;10.47;;;6.20;;
21657;SDS011;10990;48.174;9.782;2023-05-13T06:39:44;11.30;;;6.40;;
21657;SDS011;10990;48.174;9.782;2023-05-13T06:42:11;7.77;;;5.97;;
21657;SDS011;10990;48.174;9.782;2023-05-13T06:44:42;8.85;;;6.60;;
21657;SDS011;10990;48.174;9.782;2023-05-13T06:47:09;12.82;;;7.07;;
21657;SDS011;10990;48.174;9.782;2023-05-13T06:49:41;9.75;;;6.72;;
21657;SDS011;10990;48.174;9.782;2023-05-13T06:52:08;9.60;;;6.50;;
21657;SDS011;10990;48.174;9.782;2023-05-13T06:54:35;8.73;;;6.73;;
21657;SDS011;10990;48.174;9.782;2023-05-13T06:57:02;12.45;;;7.22;;
21657;SDS011;10990;48.174;9.782;2023-05-13T06:59:29;12.52;;;7.00;;
21657;SDS011;10990;48.174;9.782;2023-05-13T07:01:56;13.40;;;7.40;;
21657;SDS011;10990;48.174;9.782;2023-05-13T07:04:23;11.65;;;7.72;;
21657;SDS011;10990;48.174;9.782;2023-05-13T07:06:51;10.80;;;7.90;;
21657;SDS011;10990;48.174;9.782;2023-05-13T07:09:18;11.07;;;8.00;;
21657;SDS011;10990;48.174;9.782;2023-05-13T07:11:45;14.17;;;8.53;;
21657;SDS011;10990;48.174;9.782;2023-05-13T07:14:12;13.73;;;8.27;;
21657;SDS011;10990;48.174;9.782;2023-05-13T07:16:39;12.77;;;8.23;;
21657;SDS011;10990;48.174;9.782;2023-05-13T07:19:05;12.43;;;7.80;;
21657;SDS011;10990;48.174;9.782;2023-05-13T07:21:32;13.95;;;8.65;;
21657;SDS011;10990;48.174;9.782;2023-05-13T07:24:00;13.10;;;8.40;;
21657;SDS011;10990;48.174;9.782;2023-05-13T07:26:29;13.50;;;8.93;;
21657;SDS011;10990;48.174;9.782;2023-05-13T07:28:56;19.38;;;9.85;;
21657;SDS011;10990;48.174;9.782;2023-05-13T07:31:23;13.93;;;8.77;;
21657;SDS011;10990;48.174;9.782;2023-05-13T07:33:50;16.63;;;9.00;;
21657;SDS011;10990;48.174;9.782;2023-05-13T07:36:17;14.20;;;8.63;;
21657;SDS011;10990;48.174;9.782;2023-05-13T07:38:44;13.23;;;8.37;;
21657;SDS011;10990;48.174;9.782;2023-05-13T07:41:12;11.83;;;7.80;;
21657;SDS011;10990;48.174;9.782;2023-05-13T07:43:38;12.15;;;8.10;;
21657;SDS011;10990;48.174;9.782;2023-05-13T07:46:05;11.98;;;7.57;;
21657;SDS011;10990;48.174;9.782;2023-05-13T07:48:32;11.53;;;8.00;;
21657;SDS011;10990;48.174;9.782;2023-05-13T07:50:58;11.33;;;7.23;;
21657;SDS011;10990;48.174;9.782;2023-05-13T07:53:25;11.25;;;8.02;;
21657;SDS011;10990;48.174;9.782;2023-05-13T07:55:52;11.20;;;7.30;;
21657;SDS011;10990;48.174;9.782;2023-05-13T07:58:20;12.07;;;8.00;;
21657;SDS011;10990;48.174;9.782;2023-05-13T08:00:47;13.50;;;7.88;;
21657;SDS011;10990;48.174;9.782;2023-05-13T08:03:14;11.30;;;7.73;;
21657;SDS011;10990;48.174;9.782;2023-05-13T08:05:41;12.95;;;8.25;;
21657;SDS011;10990;48.174;9.782;2023-05-13T08:08:08;11.73;;;8.13;;
21657;SDS011;10990;48.174;9.782;2023-05-13T08:10:34;10.88;;;7.72;;
21657;SDS011;10990;48.174;9.782;2023-05-13T08:13:01;11.32;;;7.80;;
21657;SDS011;10990;48.174;9.782;2023-05-13T08:15:29;11.05;;;8.27;;
21657;SDS011;10990;48.174;9.782;2023-05-13T08:17:56;13.90;;;9.03;;
21657;SDS011;10990;48.174;9.782;2023-05-13T08:20:23;13.45;;;8.23;;
21657;SDS011;10990;48.174;9.782;2023-05-13T08:22:53;14.25;;;8.90;;
21657;SDS011;10990;48.174;9.782;2023-05-13T08:25:21;12.43;;;8.88;;
21657;SDS011;10990;48.174;9.782;2023-05-13T08:27:47;15.15;;;9.68;;
21657;SDS011;10990;48.174;9.782;2023-05-13T08:30:14;12.95;;;8.88;;
21657;SDS011;10990;48.174;9.782;2023-05-13T08:32:43;12.00;;;8.60;;
21657;SDS011;10990;48.174;9.782;2023-05-13T08:35:10;13.27;;;9.27;;
21657;SDS011;10990;48.174;9.782;2023-05-13T08:37:36;12.50;;;8.95;;
21657;SDS011;10990;48.174;9.782;2023-05-13T08:40:04;14.00;;;8.95;;
21657;SDS011;10990;48.174;9.782;2023-05-13T08:42:32;13.88;;;9.02;;
21657;SDS011;10990;48.174;9.782;2023-05-13T08:45:03;13.25;;;8.50;;
21657;SDS011;10990;48.174;9.782;2023-05-13T08:47:36;13.30;;;8.83;;
21657;SDS011;10990;48.174;9.782;2023-05-13T08:50:10;11.73;;;8.03;;
21657;SDS011;10990;48.174;9.782;2023-05-13T08:52:37;12.05;;;8.15;;
21657;SDS011;10990;48.174;9.782;2023-05-13T08:55:04;11.68;;;7.75;;
21657;SDS011;10990;48.174;9.782;2023-05-13T08:57:32;12.60;;;8.02;;
21657;SDS011;10990;48.174;9.782;2023-05-13T08:59:59;11.65;;;7.93;;
21657;SDS011;10990;48.174;9.782;2023-05-13T09:02:26;10.55;;;7.40;;
21657;SDS011;10990;48.174;9.782;2023-05-13T09:04:53;11.77;;;7.43;;
21657;SDS011;10990;48.174;9.782;2023-05-13T09:07:21;12.23;;;7.72;;
21657;SDS011;10990;48.174;9.782;2023-05-13T09:09:48;12.43;;;7.45;;
21657;SDS011;10990;48.174;9.782;2023-05-13T09:15:12;12.18;;;7.72;;
21657;SDS011;10990;48.174;9.782;2023-05-13T09:17:40;11.53;;;8.07;;
21657;SDS011;10990;48.174;9.782;2023-05-13T09:20:08;12.03;;;8.40;;
21657;SDS011;10990;48.174;9.782;2023-05-13T09:22:40;11.43;;;7.93;;
21657;SDS011;10990;48.174;9.782;2023-05-13T09:25:10;14.18;;;8.98;;
21657;SDS011;10990;48.174;9.782;2023-05-13T09:27:39;12.20;;;8.65;;
21657;SDS011;10990;48.174;9.782;2023-05-13T09:30:07;12.75;;;9.38;;
21657;SDS011;10990;48.174;9.782;2023-05-13T09:32:34;15.00;;;9.40;;
21657;SDS011;10990;48.174;9.782;2023-05-13T09:35:08;15.80;;;10.10;;
21657;SDS011;10990;48.174;9.782;2023-05-13T09:37:36;18.00;;;9.97;;
21657;SDS011;10990;48.174;9.782;2023-05-13T09:40:05;15.90;;;10.10;;
21657;SDS011;10990;48.174;9.782;2023-05-13T09:42:36;13.52;;;9.95;;
21657;SDS011;10990;48.174;9.782;2023-05-13T09:45:07;13.23;;;9.27;;
21657;SDS011;10990;48.174;9.782;2023-05-13T09:47:34;12.37;;;9.27;;
21657;SDS011;10990;48.174;9.782;2023-05-13T09:50:01;13.98;;;9.50;;
21657;SDS011;10990;48.174;9.782;2023-05-13T09:52:29;12.77;;;9.30;;
21657;SDS011;10990;48.174;9.782;2023-05-13T09:54:56;14.80;;;9.95;;
21657;SDS011;10990;48.174;9.782;2023-05-13T09:57:24;15.95;;;10.95;;
21657;SDS011;10990;48.174;9.782;2023-05-13T09:59:55;15.53;;;10.53;;
21657;SDS011;10990;48.174;9.782;2023-05-13T10:02:23;13.93;;;10.20;;
21657;SDS011;10990;48.174;9.782;2023-05-13T10:04:51;15.15;;;10.13;;
21657;SDS011;10990;48.174;9.782;2023-05-13T10:07:19;15.27;;;10.20;;
21657;SDS011;10990;48.174;9.782;2023-05-13T10:09:50;15.70;;;10.23;;
21657;SDS011;10990;48.174;9.782;2023-05-13T10:12:19;13.98;;;9.75;;
21657;SDS011;10990;48.174;9.782;2023-05-13T10:14:48;15.30;;;10.00;;
21657;SDS011;10990;48.174;9.782;2023-05-13T10:17:16;14.25;;;10.70;;
21657;SDS011;10990;48.174;9.782;2023-05-13T10:19:45;14.73;;;10.30;;
21657;SDS011;10990;48.174;9.782;2023-05-13T10:22:13;13.40;;;9.98;;
21657;SDS011;10990;48.174;9.782;2023-05-13T10:24:40;15.50;;;10.32;;
21657;SDS011;10990;48.174;9.782;2023-05-13T10:27:07;15.20;;;10.38;;
21657;SDS011;10990;48.174;9.782;2023-05-13T10:29:37;13.93;;;10.00;;
21657;SDS011;10990;48.174;9.782;2023-05-13T10:32:07;13.20;;;9.38;;
21657;SDS011;10990;48.174;9.782;2023-05-13T10:34:36;14.82;;;9.63;;
21657;SDS011;10990;48.174;9.782;2023-05-13T10:37:09;13.85;;;9.05;;
21657;SDS011;10990;48.174;9.782;2023-05-13T10:39:56;17.10;;;9.15;;
21657;SDS011;10990;48.174;9.782;2023-05-13T10:42:39;13.05;;;8.43;;
21657;SDS011;10990;48.174;9.782;2023-05-13T10:45:07;12.40;;;8.07;;
21657;SDS011;10990;48.174;9.782;2023-05-13T10:47:36;12.65;;;8.75;;
21657;SDS011;10990;48.174;9.782;2023-05-13T10:50:04;15.45;;;9.50;;
21657;SDS011;10990;48.174;9.782;2023-05-13T10:52:41;14.10;;;9.25;;
21657;SDS011;10990;48.174;9.782;2023-05-13T10:55:15;13.05;;;9.07;;
21657;SDS011;10990;48.174;9.782;2023-05-13T10:58:02;13.38;;;9.02;;
21657;SDS011;10990;48.174;9.782;2023-05-13T11:00:32;13.77;;;9.45;;
21657;SDS011;10990;48.174;9.782;2023-05-13T11:03:08;12.48;;;9.20;;
21657;SDS011;10990;48.174;9.782;2023-05-13T11:05:39;13.57;;;9.63;;
21657;SDS011;10990;48.174;9.782;2023-05-13T11:08:08;13.27;;;9.25;;
21657;SDS011;10990;48.174;9.782;2023-05-13T11:10:36;13.15;;;9.85;;
21657;SDS011;10990;48.174;9.782;2023-05-13T11:13:06;13.23;;;9.23;;
21657;SDS011;10990;48.174;9.782;2023-05-13T11:15:47;14.00;;;10.02;;
21657;SDS011;10990;48.174;9.782;2023-05-13T11:18:16;13.63;;;9.57;;
21657;SDS011;10990;48.174;9.782;2023-05-13T11:20:44;13.68;;;9.35;;
21657;SDS011;10990;48.174;9.782;2023-05-13T11:23:16;12.52;;;9.10;;
21657;SDS011;10990;48.174;9.782;2023-05-13T11:25:43;14.20;;;9.80;;
21657;SDS011;10990;48.174;9.782;2023-05-13T11:28:13;10.75;;;9.00;;
21657;SDS011;10990;48.174;9.782;2023-05-13T11:30:41;13.85;;;9.48;;
21657;SDS011;10990;48.174;9.782;2023-05-13T11:33:19;14.30;;;9.90;;
21657;SDS011;10990;48.174;9.782;2023-05-13T11:35:52;12.85;;;9.48;;
21657;SDS011;10990;48.174;9.782;2023-05-13T11:38:20;12.40;;;9.00;;
21657;SDS011;10990;48.174;9.782;2023-05-13T11:40:49;12.02;;;9.10;;
21657;SDS011;10990;48.174;9.782;2023-05-13T11:43:18;14.00;;;9.85;;
21657;SDS011;10990;48.174;9.782;2023-05-13T11:45:46;12.95;;;9.82;;
21657;SDS011;10990;48.174;9.782;2023-05-13T11:48:16;14.02;;;9.90;;
21657;SDS011;10990;48.174;9.782;2023-05-13T11:50:45;13.55;;;9.40;;
21657;SDS011;10990;48.174;9.782;2023-05-13T11:53:12;12.55;;;9.85;;
21657;SDS011;10990;48.174;9.782;2023-05-13T11:55:45;12.60;;;9.85;;
21657;SDS011;10990;48.174;9.782;2023-05-13T11:58:12;13.73;;;10.07;;
21657;SDS011;10990;48.174;9.782;2023-05-13T12:00:39;13.68;;;10.60;;
21657;SDS011;10990;48.174;9.782;2023-05-13T12:03:08;15.10;;;10.93;;
21657;SDS011;10990;48.174;9.782;2023-05-13T12:05:35;14.20;;;10.18;;
21657;SDS011;10990;48.174;9.782;2023-05-13T12:08:05;14.13;;;10.43;;
21657;SDS011;10990;48.174;9.782;2023-05-13T12:10:32;13.25;;;10.25;;
21657;SDS011;10990;48.174;9.782;2023-05-13T12:12:59;13.10;;;9.82;;
21657;SDS011;10990;48.174;9.782;2023-05-13T12:15:26;14.65;;;10.68;;
21657;SDS011;10990;48.174;9.782;2023-05-13T12:17:53;15.38;;;10.55;;
21657;SDS011;10990;48.174;9.782;2023-05-13T12:20:22;13.60;;;10.32;;
21657;SDS011;10990;48.174;9.782;2023-05-13T12:22:51;13.60;;;10.50;;
21657;SDS011;10990;48.174;9.782;2023-05-13T12:25:39;12.45;;;9.90;;
21657;SDS011;10990;48.174;9.782;2023-05-13T12:28:08;9.95;;;8.45;;
21657;SDS011;10990;48.174;9.782;2023-05-13T12:30:37;11.68;;;9.30;;
21657;SDS011;10990;48.174;9.782;2023-05-13T12:33:05;12.05;;;9.38;;
21657;SDS011;10990;48.174;9.782;2023-05-13T12:35:38;11.95;;;8.68;;
21657;SDS011;10990;48.174;9.782;2023-05-13T12:38:05;11.27;;;9.02;;
21657;SDS011;10990;48.174;9.782;2023-05-13T12:40:32;13.43;;;9.70;;
21657;SDS011;10990;48.174;9.782;2023-05-13T12:43:01;12.00;;;9.00;;
21657;SDS011;10990;48.174;9.782;2023-05-13T12:45:30;10.82;;;9.07;;
21657;SDS011;10990;48.174;9.782;2023-05-13T12:47:57;11.82;;;9.35;;
21657;SDS011;10990;48.174;9.782;2023-05-13T12:50:25;10.82;;;9.23;;
21657;SDS011;10990;48.174;9.782;2023-05-13T12:52:52;10.10;;;8.02;;
21657;SDS011;10990;48.174;9.782;2023-05-13T12:55:21;8.82;;;7.38;;
21657;SDS011;10990;48.174;9.782;2023-05-13T12:57:55;9.93;;;7.70;;
21657;SDS011;10990;48.174;9.782;2023-05-13T13:00:27;11.02;;;8.75;;
21657;SDS011;10990;48.174;9.782;2023-05-13T13:02:54;10.43;;;8.27;;
21657;SDS011;10990;48.174;9.782;2023-05-13T13:05:22;9.57;;;7.82;;
21657;SDS011;10990;48.174;9.782;2023-05-13T13:07:49;8.98;;;7.60;;
21657;SDS011;10990;48.174;9.782;2023-05-13T13:10:16;17.52;;;11.20;;
21657;SDS011;10990;48.174;9.782;2023-05-13T13:12:43;9.30;;;8.30;;
21657;SDS011;10990;48.174;9.782;2023-05-13T13:15:10;10.00;;;7.57;;
21657;SDS011;10990;48.174;9.782;2023-05-13T13:17:38;9.65;;;8.05;;
21657;SDS011;10990;48.174;9.782;2023-05-13T13:20:05;10.10;;;8.07;;
21657;SDS011;10990;48.174;9.782;2023-05-13T13:22:33;9.07;;;7.95;;
21657;SDS011;10990;48.174;9.782;2023-05-13T13:25:01;9.27;;;8.30;;
21657;SDS011;10990;48.174;9.782;2023-05-13T13:27:29;12.30;;;8.13;;
21657;SDS011;10990;48.174;9.782;2023-05-13T13:29:55;9.52;;;7.97;;
21657;SDS011;10990;48.174;9.782;2023-05-13T13:32:22;9.52;;;7.65;;
21657;SDS011;10990;48.174;9.782;2023-05-13T13:34:50;8.98;;;7.32;;
21657;SDS011;10990;48.174;9.782;2023-05-13T13:37:17;9.25;;;8.10;;
21657;SDS011;10990;48.174;9.782;2023-05-13T13:39:43;9.00;;;7.68;;
21657;SDS011;10990;48.174;9.782;2023-05-13T13:42:10;9.20;;;7.85;;
21657;SDS011;10990;48.174;9.782;2023-05-13T13:44:37;8.38;;;7.50;;
21657;SDS011;10990;48.174;9.782;2023-05-13T13:47:03;9.45;;;7.65;;
21657;SDS011;10990;48.174;9.782;2023-05-13T13:49:30;8.30;;;7.07;;
21657;SDS011;10990;48.174;9.782;2023-05-13T13:51:58;8.77;;;7.13;;
21657;SDS011;10990;48.174;9.782;2023-05-13T13:54:25;8.80;;;7.20;;
21657;SDS011;10990;48.174;9.782;2023-05-13T13:56:51;8.55;;;6.90;;
21657;SDS011;10990;48.174;9.782;2023-05-13T13:59:18;8.95;;;7.43;;
21657;SDS011;10990;48.174;9.782;2023-05-13T14:01:45;7.80;;;7.00;;
21657;SDS011;10990;48.174;9.782;2023-05-13T14:04:12;8.85;;;7.57;;
21657;SDS011;10990;48.174;9.782;2023-05-13T14:06:40;7.88;;;6.95;;
21657;SDS011;10990;48.174;9.782;2023-05-13T14:09:08;7.88;;;7.07;;
21657;SDS011;10990;48.174;9.782;2023-05-13T14:11:35;8.88;;;6.85;;
21657;SDS011;10990;48.174;9.782;2023-05-13T14:14:02;10.95;;;7.70;;
21657;SDS011;10990;48.174;9.782;2023-05-13T14:16:29;9.65;;;7.78;;
21657;SDS011;10990;48.174;9.782;2023-05-13T14:18:55;9.85;;;8.02;;
21657;SDS011;10990;48.174;9.782;2023-05-13T14:21:22;9.40;;;7.85;;
21657;SDS011;10990;48.174;9.782;2023-05-13T14:23:49;10.48;;;8.20;;
21657;SDS011;10990;48.174;9.782;2023-05-13T14:26:17;7.30;;;6.45;;
21657;SDS011;10990;48.174;9.782;2023-05-13T14:28:44;9.52;;;6.80;;
21657;SDS011;10990;48.174;9.782;2023-05-13T14:31:11;8.73;;;6.88;;
21657;SDS011;10990;48.174;9.782;2023-05-13T14:33:37;7.45;;;6.55;;
21657;SDS011;10990;48.174;9.782;2023-05-13T14:36:04;6.97;;;6.13;;
21657;SDS011;10990;48.174;9.782;2023-05-13T14:38:32;7.30;;;6.30;;
21657;SDS011;10990;48.174;9.782;2023-05-13T14:40:58;11.05;;;7.93;;
21657;SDS011;10990;48.174;9.782;2023-05-13T14:43:26;9.77;;;7.72;;
21657;SDS011;10990;48.174;9.782;2023-05-13T14:45:53;8.13;;;6.55;;
21657;SDS011;10990;48.174;9.782;2023-05-13T14:48:20;8.50;;;6.78;;
21657;SDS011;10990;48.174;9.782;2023-05-13T14:50:47;6.82;;;5.88;;